Elko Regional Airport
KEKO : now visible

Airfield :











YOU CAN JOIN US ON...

 
LOGIN :

Register | Disclaimer

   EN    FR    IT 

 









Legend :    VFR   Marginal VFR   IFR   Intensive IFR   Very Intensive IFR
Visi :
Ceiling :
>= 8 km
>= 3000ft
5 to 8 km
1000 to 3000 ft
1500m to 5 km
500 to 1000 ft
800 to 1500m
200 to 500 ft
< 800m
< 200 ft
Symbols :   Thunderstorms  Fog  Heavy snow  Heavy precipitations  Wind > 20 kt






- Airport Elevation : 5140 ft
- IATA code : EKO


KEKO - Elko Regional

CURRENT METAR :
  • 160556Z AUTO 03014KT 10SM FEW055 FEW080 11/06 A2996 RMK AO2 SLP120 60004 T01110061 10128 20106 50006

EXPIRED METARs :
  • 160456Z AUTO 10006KT 10SM FEW065 BKN100 BKN120 12/06 A2996 RMK AO2 SLP118 T01170056
  • 160356Z AUTO 06010KT 10SM BKN085 11/06 A2996 RMK AO2 SLP125 T01110061

TAF KEKO
Valid from the 16 at 06:00 until the 17 at 06:00 UTC


160520Z 1606/1706 VRB06KT P6SM VCSH SCT050 BKN090
TEMPO 1606/1610 VRB10G20KT 5SM -SHRA
FM161000 VRB03KT P6SM SCT050 BKN100
FM161800 07007KT P6SM VCSH SCT050 BKN080
FM162000 12007KT P6SM VCTS BKN060CB OVC150
TEMPO 1621/1701 VRB20G40KT 3SM TSRAGR OVC050CB
FM170200 VRB04KT 6SM -SHRA VCTS OVC090CB
KZLC FIR / North America



MET'MAP, your aeronautical weather chart ! - Copyright ORBIFLY December 2007 - Disclaimer

ORBIFLY MET'MAP TEAM :

Programming & Development : Alexandra Zaïnal
Concept & original design : Baudouin d'Aumeries
Assistance for programming : Marc-Olivier Méhu
Technical & hardware support : Manuel Goepfert

Contact : metmap@orbifly.com




SOURCES & CREDITS :

   NOAA       Earth
Advisory